Terminal Aerodrome Forecast
Issued by NWS Paducah, KY

Home | Current Version | Previous Version | Graphics & Text | Print | Product List | Glossary On
Versions: 1 2 3 4 5 6 7 8 9 10 11 12 13 14 15 16 17 18 19 20 21 22 23 24 25 26
471
FTUS43 KPAH 160930 AAA
TAFEVV
TAF AMD
KEVV 160930Z 1610/1706 08004KT 5SM BR OVC003
     FM161100 07004KT 2SM BR OVC003
     FM161700 14007KT 4SM -RA BR OVC008
     FM162200 15009KT 5SM -SHRA BR OVC015=

USA.gov is the U.S. government's official web portal to all federal, state and local government web resources and services.